Funchalense 5 — CSKN — position and weather

sailwx.info

Track history (hours):
 
Tides and Currents Weather Stations Pressure Air Temp Water Temp Dewpoint Dewpoint Depression Visibility Wind Speed Wind Dir Waves Ship Positions

Funchalense 5

Last reported at 2015-Jul-30 19:33 UTC. Time now 2015-Jul-30 20:18 UTC.
Position N 38°43' W 009°07'.

Length 127 m; draft 6.5 m.

Type: Ship. MMSI: 255804250.

Date/timePositionNaut miles runAvg speedWind from/ knotsBaromVisibWave heightAir tempDewpointWater temp
2015-Jul-30 19:33N 38°43' W 009°07'0 0.0
2015-Jul-30 18:33N 38°43' W 009°07'0 0.0
2015-Jul-30 17:33N 38°43' W 009°07'0 0.0
2015-Jul-30 16:32N 38°43' W 009°07'0 0.0
2015-Jul-30 15:32N 38°43' W 009°07'0 0.0
2015-Jul-30 14:31N 38°43' W 009°07'0 0.0
2015-Jul-30 13:31N 38°43' W 009°07'0 0.0
2015-Jul-30 12:33N 38°43' W 009°07'0 0.0
2015-Jul-30 11:33N 38°43' W 009°07'0 0.0
2015-Jul-30 10:33N 38°43' W 009°07'0 0.0
2015-Jul-30 09:32N 38°43' W 009°07'0 0.0
2015-Jul-30 08:32N 38°43' W 009°07'1 0.7
2015-Jul-30 07:33N 38°43' W 009°07'1312.3
2015-Jul-30 06:28N 38°37' W 009°23'1415.2
2015-Jul-30 05:33N 38°27' W 009°35'1515.3
2015-Jul-30 04:33N 38°16' W 009°48'1615.3
2015-Jul-30 03:32N 38°05' W 010°03'1915.3
2015-Jul-30 02:19N 37°52' W 010°20'1215.1
2015-Jul-30 01:33N 37°44' W 010°30'1615.6
2015-Jul-30 00:32N 37°33' W 010°44'1515.4
2015-Jul-29 23:33N 37°22' W 010°58'1615.3
2015-Jul-29 22:31N 37°11' W 011°12'1715.1
2015-Jul-29 21:23N 36°58' W 011°26'  
2015-Jul-26 12:07N 35°56' W 012°48'2314.6
2015-Jul-26 10:32N 36°11' W 012°26'1515.3
2015-Jul-26 09:32N 36°22' W 012°12'1615.3
2015-Jul-26 08:31N 36°34' W 011°59'1515.4
2015-Jul-26 07:33N 36°44' W 011°46'1515.2
2015-Jul-26 06:33N 36°54' W 011°32'1515.1
2015-Jul-26 05:33N 37°05' W 011°19'1515.2
2015-Jul-26 04:33N 37°16' W 011°05'1515.2
2015-Jul-26 03:33N 37°27' W 010°52'1515.3
2015-Jul-26 02:33N 37°37' W 010°38'1515.1
2015-Jul-26 01:33N 37°48' W 010°25'1514.9
2015-Jul-26 00:33N 37°59' W 010°12'1515.0
2015-Jul-25 23:33N 38°09' W 009°58'1515.2
2015-Jul-25 22:33N 38°20' W 009°44'1615.5
2015-Jul-25 21:33N 38°31' W 009°31'1615.5
2015-Jul-25 20:33N 38°41' W 009°15'7 6.8
2015-Jul-25 19:33N 38°43' W 009°07'0 0.1
2015-Jul-25 18:32N 38°43' W 009°07'0 0.0
2015-Jul-25 17:32N 38°43' W 009°07'0 0.0
2015-Jul-25 16:31N 38°43' W 009°07'0 0.0
2015-Jul-25 15:31N 38°43' W 009°07'0 0.0
2015-Jul-25 14:33N 38°43' W 009°07'0 0.0
2015-Jul-25 13:33N 38°43' W 009°07'0 0.0
2015-Jul-25 12:33N 38°43' W 009°07'0 0.0
2015-Jul-25 11:32N 38°43' W 009°07'0 0.0
2015-Jul-25 10:32N 38°43' W 009°07'0 0.0
2015-Jul-25 09:31N 38°43' W 009°07'0 0.0
2015-Jul-25 08:31N 38°43' W 009°07'0 0.1
2015-Jul-25 07:34N 38°43' W 009°07'1212.2
2015-Jul-25 06:33N 38°38' W 009°21'1616.1
2015-Jul-25 05:33N 38°39' W 009°42'1717.4
2015-Jul-25 04:33N 38°56' W 009°45'1817.9
2015-Jul-25 03:33N 39°14' W 009°45'126 3.3
2015-Jul-23 13:23N 41°11' W 008°42'7 8.5
2015-Jul-23 12:33N 41°05' W 008°48'1413.7
2015-Jul-23 11:33N 40°55' W 008°60'1313.0
2015-Jul-23 10:33N 40°44' W 009°09'1413.7
2015-Jul-23 09:33N 40°33' W 009°19'1814.0
2015-Jul-23 08:14N 40°18' W 009°34'1014.3
2015-Jul-23 07:33N 40°10' W 009°41'1514.6
2015-Jul-23 06:33N 39°58' W 009°53'1414.5
2015-Jul-23 05:33N 39°47' W 010°04'1714.6
2015-Jul-23 04:22N 39°33' W 010°17'1214.8
2015-Jul-23 03:33N 39°23' W 010°26'1614.5
2015-Jul-23 02:27N 39°11' W 010°39'1314.5
2015-Jul-23 01:33N 38°60' W 010°49'1514.6
2015-Jul-23 00:30N 38°48' W 011°00'1414.7
2015-Jul-22 23:33N 38°36' W 011°11'1514.7
2015-Jul-22 22:33N 38°25' W 011°22'1514.2
2015-Jul-22 21:32N 38°12' W 011°31'1414.1
2015-Jul-22 20:32N 38°02' W 011°44'1414.7
2015-Jul-22 19:33N 37°50' W 011°54'1614.9
2015-Jul-22 18:27N 37°37' W 012°07'1314.8
2015-Jul-22 17:32N 37°26' W 012°17'1514.9
2015-Jul-22 16:33N 37°14' W 012°28'1312.5
2015-Jul-22 15:33N 37°04' W 012°37'2014.1
2015-Jul-22 14:09N 36°48' W 012°52'  
Track history (hours):
 
Tides and Currents Weather Stations Pressure Air Temp Water Temp Dewpoint Dewpoint Depression Visibility Wind Speed Wind Dir Waves Ship Positions

Funchalense 5

Last reported at 2015-Jul-30 19:33 UTC. Time now 2015-Jul-30 20:18 UTC.
Position N 38°43' W 009°07'.

Length 127 m; draft 6.5 m.

Type: Ship. MMSI: 255804250.

Date/timePositionNaut miles runAvg speedWind from/ knotsBaromVisibWave heightAir tempDewpointWater temp
2015-Jul-30 19:33N 38°43' W 009°07'0 0.0
2015-Jul-30 18:33N 38°43' W 009°07'0 0.0
2015-Jul-30 17:33N 38°43' W 009°07'0 0.0
2015-Jul-30 16:32N 38°43' W 009°07'0 0.0
2015-Jul-30 15:32N 38°43' W 009°07'0 0.0
2015-Jul-30 14:31N 38°43' W 009°07'0 0.0
2015-Jul-30 13:31N 38°43' W 009°07'0 0.0
2015-Jul-30 12:33N 38°43' W 009°07'0 0.0
2015-Jul-30 11:33N 38°43' W 009°07'0 0.0
2015-Jul-30 10:33N 38°43' W 009°07'0 0.0
2015-Jul-30 09:32N 38°43' W 009°07'0 0.0
2015-Jul-30 08:32N 38°43' W 009°07'1 0.7
2015-Jul-30 07:33N 38°43' W 009°07'1312.3
2015-Jul-30 06:28N 38°37' W 009°23'1415.2
2015-Jul-30 05:33N 38°27' W 009°35'1515.3
2015-Jul-30 04:33N 38°16' W 009°48'1615.3
2015-Jul-30 03:32N 38°05' W 010°03'1915.3
2015-Jul-30 02:19N 37°52' W 010°20'1215.1
2015-Jul-30 01:33N 37°44' W 010°30'1615.6
2015-Jul-30 00:32N 37°33' W 010°44'1515.4
2015-Jul-29 23:33N 37°22' W 010°58'1615.3
2015-Jul-29 22:31N 37°11' W 011°12'1715.1
2015-Jul-29 21:23N 36°58' W 011°26'  
2015-Jul-26 12:07N 35°56' W 012°48'2314.6
2015-Jul-26 10:32N 36°11' W 012°26'1515.3
2015-Jul-26 09:32N 36°22' W 012°12'1615.3
2015-Jul-26 08:31N 36°34' W 011°59'1515.4
2015-Jul-26 07:33N 36°44' W 011°46'1515.2
2015-Jul-26 06:33N 36°54' W 011°32'1515.1
2015-Jul-26 05:33N 37°05' W 011°19'1515.2
2015-Jul-26 04:33N 37°16' W 011°05'1515.2
2015-Jul-26 03:33N 37°27' W 010°52'1515.3
2015-Jul-26 02:33N 37°37' W 010°38'1515.1
2015-Jul-26 01:33N 37°48' W 010°25'1514.9
2015-Jul-26 00:33N 37°59' W 010°12'1515.0
2015-Jul-25 23:33N 38°09' W 009°58'1515.2
2015-Jul-25 22:33N 38°20' W 009°44'1615.5
2015-Jul-25 21:33N 38°31' W 009°31'1615.5
2015-Jul-25 20:33N 38°41' W 009°15'7 6.8
2015-Jul-25 19:33N 38°43' W 009°07'0 0.1
2015-Jul-25 18:32N 38°43' W 009°07'0 0.0
2015-Jul-25 17:32N 38°43' W 009°07'0 0.0
2015-Jul-25 16:31N 38°43' W 009°07'0 0.0
2015-Jul-25 15:31N 38°43' W 009°07'0 0.0
2015-Jul-25 14:33N 38°43' W 009°07'0 0.0
2015-Jul-25 13:33N 38°43' W 009°07'0 0.0
2015-Jul-25 12:33N 38°43' W 009°07'0 0.0
2015-Jul-25 11:32N 38°43' W 009°07'0 0.0
2015-Jul-25 10:32N 38°43' W 009°07'0 0.0
2015-Jul-25 09:31N 38°43' W 009°07'0 0.0
2015-Jul-25 08:31N 38°43' W 009°07'0 0.1
2015-Jul-25 07:34N 38°43' W 009°07'1212.2
2015-Jul-25 06:33N 38°38' W 009°21'1616.1
2015-Jul-25 05:33N 38°39' W 009°42'1717.4
2015-Jul-25 04:33N 38°56' W 009°45'1817.9
2015-Jul-25 03:33N 39°14' W 009°45'126 3.3
2015-Jul-23 13:23N 41°11' W 008°42'7 8.5
2015-Jul-23 12:33N 41°05' W 008°48'1413.7
2015-Jul-23 11:33N 40°55' W 008°60'1313.0
2015-Jul-23 10:33N 40°44' W 009°09'1413.7
2015-Jul-23 09:33N 40°33' W 009°19'1814.0
2015-Jul-23 08:14N 40°18' W 009°34'1014.3
2015-Jul-23 07:33N 40°10' W 009°41'1514.6
2015-Jul-23 06:33N 39°58' W 009°53'1414.5
2015-Jul-23 05:33N 39°47' W 010°04'1714.6
2015-Jul-23 04:22N 39°33' W 010°17'1214.8
2015-Jul-23 03:33N 39°23' W 010°26'1614.5
2015-Jul-23 02:27N 39°11' W 010°39'1314.5
2015-Jul-23 01:33N 38°60' W 010°49'1514.6
2015-Jul-23 00:30N 38°48' W 011°00'1414.7
2015-Jul-22 23:33N 38°36' W 011°11'1514.7
2015-Jul-22 22:33N 38°25' W 011°22'1514.2
2015-Jul-22 21:32N 38°12' W 011°31'1414.1
2015-Jul-22 20:32N 38°02' W 011°44'1414.7
2015-Jul-22 19:33N 37°50' W 011°54'1614.9
2015-Jul-22 18:27N 37°37' W 012°07'1314.8
2015-Jul-22 17:32N 37°26' W 012°17'1514.9
2015-Jul-22 16:33N 37°14' W 012°28'1312.5
2015-Jul-22 15:33N 37°04' W 012°37'2014.1
2015-Jul-22 14:09N 36°48' W 012°52'  

Dump ship's entire track history